sensor_id;sensor_type;location;lat;lon;timestamp;P1;durP1;ratioP1;P2;durP2;ratioP2
68250;SDS011;55066;51.560;4.642;2023-01-29T00:02:16;35.08;;;13.52;;
68250;SDS011;55066;51.560;4.642;2023-01-29T00:04:41;39.25;;;14.38;;
68250;SDS011;55066;51.560;4.642;2023-01-29T00:07:06;36.80;;;14.73;;
68250;SDS011;55066;51.560;4.642;2023-01-29T00:09:32;34.37;;;12.87;;
68250;SDS011;55066;51.560;4.642;2023-01-29T00:11:58;39.38;;;14.77;;
68250;SDS011;55066;51.560;4.642;2023-01-29T00:14:23;35.77;;;14.47;;
68250;SDS011;55066;51.560;4.642;2023-01-29T00:16:50;43.00;;;14.75;;
68250;SDS011;55066;51.560;4.642;2023-01-29T00:19:15;41.93;;;14.97;;
68250;SDS011;55066;51.560;4.642;2023-01-29T00:21:41;37.95;;;15.15;;
68250;SDS011;55066;51.560;4.642;2023-01-29T00:24:07;40.30;;;14.15;;
68250;SDS011;55066;51.560;4.642;2023-01-29T00:26:33;41.20;;;14.40;;
68250;SDS011;55066;51.560;4.642;2023-01-29T00:28:58;38.95;;;15.32;;
68250;SDS011;55066;51.560;4.642;2023-01-29T00:31:26;37.53;;;15.47;;
68250;SDS011;55066;51.560;4.642;2023-01-29T00:33:52;40.83;;;14.68;;
68250;SDS011;55066;51.560;4.642;2023-01-29T00:36:18;39.47;;;15.23;;
68250;SDS011;55066;51.560;4.642;2023-01-29T00:38:45;38.72;;;14.38;;
68250;SDS011;55066;51.560;4.642;2023-01-29T00:41:18;35.70;;;13.85;;
68250;SDS011;55066;51.560;4.642;2023-01-29T00:44:05;37.40;;;13.83;;
68250;SDS011;55066;51.560;4.642;2023-01-29T00:46:50;33.55;;;13.32;;
68250;SDS011;55066;51.560;4.642;2023-01-29T00:49:16;33.25;;;13.45;;
68250;SDS011;55066;51.560;4.642;2023-01-29T00:51:41;36.43;;;13.77;;
68250;SDS011;55066;51.560;4.642;2023-01-29T00:54:07;37.60;;;13.60;;
68250;SDS011;55066;51.560;4.642;2023-01-29T00:56:33;33.07;;;12.93;;
68250;SDS011;55066;51.560;4.642;2023-01-29T00:59:00;36.85;;;13.35;;
68250;SDS011;55066;51.560;4.642;2023-01-29T01:01:26;33.78;;;13.23;;
68250;SDS011;55066;51.560;4.642;2023-01-29T01:04:10;41.47;;;14.37;;
68250;SDS011;55066;51.560;4.642;2023-01-29T01:06:37;39.80;;;13.90;;
68250;SDS011;55066;51.560;4.642;2023-01-29T01:09:06;37.80;;;14.30;;
68250;SDS011;55066;51.560;4.642;2023-01-29T01:11:51;34.22;;;13.20;;
68250;SDS011;55066;51.560;4.642;2023-01-29T01:14:17;33.60;;;13.53;;
68250;SDS011;55066;51.560;4.642;2023-01-29T01:16:44;39.35;;;13.82;;
68250;SDS011;55066;51.560;4.642;2023-01-29T01:19:11;35.55;;;13.98;;
68250;SDS011;55066;51.560;4.642;2023-01-29T01:21:37;37.73;;;13.87;;
68250;SDS011;55066;51.560;4.642;2023-01-29T01:24:03;43.53;;;15.55;;
68250;SDS011;55066;51.560;4.642;2023-01-29T01:26:30;37.73;;;14.00;;
68250;SDS011;55066;51.560;4.642;2023-01-29T01:28:56;34.80;;;13.75;;
68250;SDS011;55066;51.560;4.642;2023-01-29T01:31:22;33.05;;;13.50;;
68250;SDS011;55066;51.560;4.642;2023-01-29T01:33:48;40.07;;;14.07;;
68250;SDS011;55066;51.560;4.642;2023-01-29T01:36:15;36.75;;;14.38;;
68250;SDS011;55066;51.560;4.642;2023-01-29T01:38:41;33.60;;;13.05;;
68250;SDS011;55066;51.560;4.642;2023-01-29T01:41:13;37.50;;;12.90;;
68250;SDS011;55066;51.560;4.642;2023-01-29T01:46:23;29.80;;;11.80;;
68250;SDS011;55066;51.560;4.642;2023-01-29T01:49:09;41.63;;;14.60;;
68250;SDS011;55066;51.560;4.642;2023-01-29T01:51:41;32.93;;;12.93;;
68250;SDS011;55066;51.560;4.642;2023-01-29T01:54:14;33.20;;;13.55;;
68250;SDS011;55066;51.560;4.642;2023-01-29T01:56:49;42.28;;;14.70;;
68250;SDS011;55066;51.560;4.642;2023-01-29T01:59:19;36.15;;;14.18;;
68250;SDS011;55066;51.560;4.642;2023-01-29T02:01:48;38.28;;;14.02;;
68250;SDS011;55066;51.560;4.642;2023-01-29T02:04:21;36.90;;;13.43;;
68250;SDS011;55066;51.560;4.642;2023-01-29T02:07:08;35.17;;;13.70;;
68250;SDS011;55066;51.560;4.642;2023-01-29T02:10:07;37.15;;;13.80;;
68250;SDS011;55066;51.560;4.642;2023-01-29T02:12:36;34.53;;;14.18;;
68250;SDS011;55066;51.560;4.642;2023-01-29T02:15:03;32.72;;;12.98;;
68250;SDS011;55066;51.560;4.642;2023-01-29T02:17:29;34.43;;;13.13;;
68250;SDS011;55066;51.560;4.642;2023-01-29T02:30:58;38.00;;;14.93;;
68250;SDS011;55066;51.560;4.642;2023-01-29T02:36:10;42.28;;;16.73;;
68250;SDS011;55066;51.560;4.642;2023-01-29T02:41:47;43.40;;;16.80;;
68250;SDS011;55066;51.560;4.642;2023-01-29T02:53:16;39.47;;;15.70;;
68250;SDS011;55066;51.560;4.642;2023-01-29T02:59:15;35.53;;;14.70;;
68250;SDS011;55066;51.560;4.642;2023-01-29T03:01:22;40.10;;;15.88;;
68250;SDS011;55066;51.560;4.642;2023-01-29T03:04:08;41.55;;;14.63;;
68250;SDS011;55066;51.560;4.642;2023-01-29T03:06:40;34.92;;;14.50;;
68250;SDS011;55066;51.560;4.642;2023-01-29T03:09:12;40.88;;;15.85;;
68250;SDS011;55066;51.560;4.642;2023-01-29T03:12:12;44.50;;;15.93;;
68250;SDS011;55066;51.560;4.642;2023-01-29T03:14:53;40.85;;;14.77;;
68250;SDS011;55066;51.560;4.642;2023-01-29T03:17:39;44.00;;;16.80;;
68250;SDS011;55066;51.560;4.642;2023-01-29T03:20:21;42.33;;;16.45;;
68250;SDS011;55066;51.560;4.642;2023-01-29T03:22:55;46.67;;;16.63;;
68250;SDS011;55066;51.560;4.642;2023-01-29T03:25:25;44.03;;;16.53;;
68250;SDS011;55066;51.560;4.642;2023-01-29T03:28:11;44.13;;;16.55;;
68250;SDS011;55066;51.560;4.642;2023-01-29T03:31:02;41.97;;;15.88;;
68250;SDS011;55066;51.560;4.642;2023-01-29T03:34:04;40.35;;;16.15;;
68250;SDS011;55066;51.560;4.642;2023-01-29T03:36:38;44.13;;;16.65;;
68250;SDS011;55066;51.560;4.642;2023-01-29T03:39:33;47.40;;;17.50;;
68250;SDS011;55066;51.560;4.642;2023-01-29T03:42:08;44.85;;;16.25;;
68250;SDS011;55066;51.560;4.642;2023-01-29T03:50:10;40.25;;;17.00;;
68250;SDS011;55066;51.560;4.642;2023-01-29T03:52:53;46.10;;;17.17;;
68250;SDS011;55066;51.560;4.642;2023-01-29T04:03:28;48.38;;;17.58;;
68250;SDS011;55066;51.560;4.642;2023-01-29T04:06:15;45.83;;;17.30;;
68250;SDS011;55066;51.560;4.642;2023-01-29T04:09:13;44.40;;;17.60;;
68250;SDS011;55066;51.560;4.642;2023-01-29T04:11:47;44.38;;;16.45;;
68250;SDS011;55066;51.560;4.642;2023-01-29T04:14:17;45.83;;;17.98;;
68250;SDS011;55066;51.560;4.642;2023-01-29T04:16:46;46.15;;;17.48;;
68250;SDS011;55066;51.560;4.642;2023-01-29T04:19:49;42.03;;;17.03;;
68250;SDS011;55066;51.560;4.642;2023-01-29T04:22:17;51.03;;;18.70;;
68250;SDS011;55066;51.560;4.642;2023-01-29T04:24:45;46.63;;;17.95;;
68250;SDS011;55066;51.560;4.642;2023-01-29T04:27:31;49.03;;;17.45;;
68250;SDS011;55066;51.560;4.642;2023-01-29T04:33:03;47.97;;;16.17;;
68250;SDS011;55066;51.560;4.642;2023-01-29T04:35:47;46.53;;;17.02;;
68250;SDS011;55066;51.560;4.642;2023-01-29T04:46:20;44.13;;;16.67;;
68250;SDS011;55066;51.560;4.642;2023-01-29T04:59:54;43.63;;;15.97;;
68250;SDS011;55066;51.560;4.642;2023-01-29T05:02:24;46.13;;;16.98;;
68250;SDS011;55066;51.560;4.642;2023-01-29T05:04:51;45.13;;;17.73;;
68250;SDS011;55066;51.560;4.642;2023-01-29T05:07:18;44.03;;;17.10;;
68250;SDS011;55066;51.560;4.642;2023-01-29T05:09:44;43.58;;;16.73;;
68250;SDS011;55066;51.560;4.642;2023-01-29T05:12:12;43.37;;;17.30;;
68250;SDS011;55066;51.560;4.642;2023-01-29T05:14:40;48.72;;;17.90;;
68250;SDS011;55066;51.560;4.642;2023-01-29T05:17:09;43.30;;;16.48;;
68250;SDS011;55066;51.560;4.642;2023-01-29T05:19:39;43.95;;;16.23;;
68250;SDS011;55066;51.560;4.642;2023-01-29T05:22:09;48.78;;;17.10;;
68250;SDS011;55066;51.560;4.642;2023-01-29T05:24:36;44.43;;;16.07;;
68250;SDS011;55066;51.560;4.642;2023-01-29T05:27:02;44.95;;;18.35;;
68250;SDS011;55066;51.560;4.642;2023-01-29T05:29:46;43.85;;;16.38;;
68250;SDS011;55066;51.560;4.642;2023-01-29T05:32:12;44.63;;;16.03;;
68250;SDS011;55066;51.560;4.642;2023-01-29T05:34:39;40.65;;;15.43;;
68250;SDS011;55066;51.560;4.642;2023-01-29T05:37:05;41.80;;;15.77;;
68250;SDS011;55066;51.560;4.642;2023-01-29T05:39:30;40.38;;;15.52;;
68250;SDS011;55066;51.560;4.642;2023-01-29T05:41:56;40.53;;;16.43;;
68250;SDS011;55066;51.560;4.642;2023-01-29T05:44:21;41.30;;;16.17;;
68250;SDS011;55066;51.560;4.642;2023-01-29T05:46:48;45.60;;;16.67;;
68250;SDS011;55066;51.560;4.642;2023-01-29T05:49:15;42.80;;;15.73;;
68250;SDS011;55066;51.560;4.642;2023-01-29T05:51:42;43.53;;;15.98;;
68250;SDS011;55066;51.560;4.642;2023-01-29T05:54:09;40.57;;;15.93;;
68250;SDS011;55066;51.560;4.642;2023-01-29T05:56:36;43.53;;;15.00;;
68250;SDS011;55066;51.560;4.642;2023-01-29T05:59:01;41.37;;;15.93;;
68250;SDS011;55066;51.560;4.642;2023-01-29T06:01:27;41.45;;;15.88;;
68250;SDS011;55066;51.560;4.642;2023-01-29T06:03:52;46.10;;;16.95;;
68250;SDS011;55066;51.560;4.642;2023-01-29T06:06:18;39.87;;;15.80;;
68250;SDS011;55066;51.560;4.642;2023-01-29T06:08:43;33.43;;;12.77;;
68250;SDS011;55066;51.560;4.642;2023-01-29T06:11:10;40.03;;;15.83;;
68250;SDS011;55066;51.560;4.642;2023-01-29T06:13:36;42.10;;;16.65;;
68250;SDS011;55066;51.560;4.642;2023-01-29T06:16:09;41.05;;;15.70;;
68250;SDS011;55066;51.560;4.642;2023-01-29T06:18:35;40.63;;;16.17;;
68250;SDS011;55066;51.560;4.642;2023-01-29T06:21:02;40.80;;;16.45;;
68250;SDS011;55066;51.560;4.642;2023-01-29T06:23:29;41.20;;;16.88;;
68250;SDS011;55066;51.560;4.642;2023-01-29T06:26:02;46.83;;;16.90;;
68250;SDS011;55066;51.560;4.642;2023-01-29T06:28:29;38.97;;;15.98;;
68250;SDS011;55066;51.560;4.642;2023-01-29T06:30:58;41.53;;;16.80;;
68250;SDS011;55066;51.560;4.642;2023-01-29T06:33:25;42.95;;;16.65;;
68250;SDS011;55066;51.560;4.642;2023-01-29T06:35:58;44.33;;;17.17;;
68250;SDS011;55066;51.560;4.642;2023-01-29T06:38:25;42.28;;;16.67;;
68250;SDS011;55066;51.560;4.642;2023-01-29T06:40:51;41.13;;;16.20;;
68250;SDS011;55066;51.560;4.642;2023-01-29T06:43:17;43.47;;;17.50;;
68250;SDS011;55066;51.560;4.642;2023-01-29T06:45:50;44.78;;;16.35;;
68250;SDS011;55066;51.560;4.642;2023-01-29T06:48:19;42.55;;;16.55;;
68250;SDS011;55066;51.560;4.642;2023-01-29T06:50:45;41.83;;;17.17;;
68250;SDS011;55066;51.560;4.642;2023-01-29T06:53:11;42.27;;;16.70;;
68250;SDS011;55066;51.560;4.642;2023-01-29T06:55:36;42.63;;;17.15;;
68250;SDS011;55066;51.560;4.642;2023-01-29T06:58:05;43.33;;;17.00;;
68250;SDS011;55066;51.560;4.642;2023-01-29T07:00:32;41.67;;;16.40;;
68250;SDS011;55066;51.560;4.642;2023-01-29T07:02:58;43.28;;;16.13;;
68250;SDS011;55066;51.560;4.642;2023-01-29T07:05:24;41.80;;;16.23;;
68250;SDS011;55066;51.560;4.642;2023-01-29T07:07:49;42.77;;;16.07;;
68250;SDS011;55066;51.560;4.642;2023-01-29T07:10:15;42.03;;;16.70;;
68250;SDS011;55066;51.560;4.642;2023-01-29T07:12:40;46.80;;;17.43;;
68250;SDS011;55066;51.560;4.642;2023-01-29T07:15:06;43.97;;;17.83;;
68250;SDS011;55066;51.560;4.642;2023-01-29T07:17:31;45.35;;;18.30;;
68250;SDS011;55066;51.560;4.642;2023-01-29T07:19:57;42.80;;;16.70;;
68250;SDS011;55066;51.560;4.642;2023-01-29T07:22:22;43.83;;;17.02;;
68250;SDS011;55066;51.560;4.642;2023-01-29T07:24:48;42.87;;;17.47;;
68250;SDS011;55066;51.560;4.642;2023-01-29T07:27:13;44.13;;;16.80;;
68250;SDS011;55066;51.560;4.642;2023-01-29T07:29:38;44.40;;;16.87;;
68250;SDS011;55066;51.560;4.642;2023-01-29T07:32:04;42.88;;;16.45;;
68250;SDS011;55066;51.560;4.642;2023-01-29T07:34:29;40.47;;;16.33;;
68250;SDS011;55066;51.560;4.642;2023-01-29T07:36:55;40.70;;;16.37;;
68250;SDS011;55066;51.560;4.642;2023-01-29T07:39:21;39.60;;;16.33;;
68250;SDS011;55066;51.560;4.642;2023-01-29T07:41:47;42.53;;;17.13;;
68250;SDS011;55066;51.560;4.642;2023-01-29T07:44:15;45.90;;;16.73;;
68250;SDS011;55066;51.560;4.642;2023-01-29T07:46:41;38.67;;;15.57;;
68250;SDS011;55066;51.560;4.642;2023-01-29T07:49:06;41.20;;;15.93;;
68250;SDS011;55066;51.560;4.642;2023-01-29T07:51:32;40.63;;;16.23;;
68250;SDS011;55066;51.560;4.642;2023-01-29T07:53:57;40.33;;;15.07;;
68250;SDS011;55066;51.560;4.642;2023-01-29T07:56:22;42.27;;;16.70;;
68250;SDS011;55066;51.560;4.642;2023-01-29T07:58:48;45.67;;;17.02;;
68250;SDS011;55066;51.560;4.642;2023-01-29T08:01:13;43.33;;;16.58;;
68250;SDS011;55066;51.560;4.642;2023-01-29T08:03:39;42.27;;;15.90;;
68250;SDS011;55066;51.560;4.642;2023-01-29T08:06:04;40.00;;;15.90;;
68250;SDS011;55066;51.560;4.642;2023-01-29T08:08:30;42.72;;;15.75;;
68250;SDS011;55066;51.560;4.642;2023-01-29T08:10:55;41.30;;;16.03;;
68250;SDS011;55066;51.560;4.642;2023-01-29T08:13:21;38.93;;;15.20;;
68250;SDS011;55066;51.560;4.642;2023-01-29T08:15:46;40.60;;;15.80;;
68250;SDS011;55066;51.560;4.642;2023-01-29T08:18:12;42.22;;;15.70;;
68250;SDS011;55066;51.560;4.642;2023-01-29T08:20:38;35.00;;;14.37;;
68250;SDS011;55066;51.560;4.642;2023-01-29T08:23:05;40.88;;;15.43;;
68250;SDS011;55066;51.560;4.642;2023-01-29T08:25:32;38.97;;;14.93;;
68250;SDS011;55066;51.560;4.642;2023-01-29T08:27:58;36.93;;;15.57;;
68250;SDS011;55066;51.560;4.642;2023-01-29T08:30:25;35.97;;;14.82;;
68250;SDS011;55066;51.560;4.642;2023-01-29T08:32:52;40.28;;;15.57;;
68250;SDS011;55066;51.560;4.642;2023-01-29T08:35:18;36.40;;;14.60;;
68250;SDS011;55066;51.560;4.642;2023-01-29T08:37:44;34.60;;;13.68;;
68250;SDS011;55066;51.560;4.642;2023-01-29T08:40:17;33.05;;;13.93;;
68250;SDS011;55066;51.560;4.642;2023-01-29T08:42:42;35.93;;;14.07;;
68250;SDS011;55066;51.560;4.642;2023-01-29T08:45:07;35.97;;;14.43;;
68250;SDS011;55066;51.560;4.642;2023-01-29T08:47:33;35.88;;;14.20;;
68250;SDS011;55066;51.560;4.642;2023-01-29T08:49:59;36.00;;;14.43;;
68250;SDS011;55066;51.560;4.642;2023-01-29T08:52:24;38.63;;;14.93;;
68250;SDS011;55066;51.560;4.642;2023-01-29T08:54:49;36.67;;;14.87;;
68250;SDS011;55066;51.560;4.642;2023-01-29T08:57:15;38.40;;;14.95;;
68250;SDS011;55066;51.560;4.642;2023-01-29T08:59:40;36.40;;;14.65;;
68250;SDS011;55066;51.560;4.642;2023-01-29T09:02:06;36.23;;;14.53;;
68250;SDS011;55066;51.560;4.642;2023-01-29T09:04:33;36.75;;;14.85;;
68250;SDS011;55066;51.560;4.642;2023-01-29T09:06:58;39.53;;;15.43;;
68250;SDS011;55066;51.560;4.642;2023-01-29T09:09:23;35.53;;;14.00;;
68250;SDS011;55066;51.560;4.642;2023-01-29T09:11:49;39.60;;;14.97;;
68250;SDS011;55066;51.560;4.642;2023-01-29T09:14:14;39.15;;;15.35;;
68250;SDS011;55066;51.560;4.642;2023-01-29T09:16:40;42.00;;;14.67;;
68250;SDS011;55066;51.560;4.642;2023-01-29T09:19:05;29.13;;;12.03;;
68250;SDS011;55066;51.560;4.642;2023-01-29T09:21:32;36.33;;;13.75;;
68250;SDS011;55066;51.560;4.642;2023-01-29T09:23:57;37.70;;;14.93;;
68250;SDS011;55066;51.560;4.642;2023-01-29T09:26:23;34.47;;;13.77;;
68250;SDS011;55066;51.560;4.642;2023-01-29T09:28:48;36.65;;;13.93;;
68250;SDS011;55066;51.560;4.642;2023-01-29T09:31:14;39.85;;;13.90;;
68250;SDS011;55066;51.560;4.642;2023-01-29T09:33:39;37.80;;;14.73;;
68250;SDS011;55066;51.560;4.642;2023-01-29T09:36:05;36.93;;;14.37;;
68250;SDS011;55066;51.560;4.642;2023-01-29T09:38:30;33.42;;;13.93;;
68250;SDS011;55066;51.560;4.642;2023-01-29T09:41:41;35.20;;;14.40;;
68250;SDS011;55066;51.560;4.642;2023-01-29T09:44:09;36.53;;;13.27;;
68250;SDS011;55066;51.560;4.642;2023-01-29T09:46:44;32.88;;;13.27;;
68250;SDS011;55066;51.560;4.642;2023-01-29T09:49:15;31.67;;;12.95;;
68250;SDS011;55066;51.560;4.642;2023-01-29T09:51:54;33.80;;;13.93;;
68250;SDS011;55066;51.560;4.642;2023-01-29T09:54:46;31.23;;;12.77;;
68250;SDS011;55066;51.560;4.642;2023-01-29T09:57:23;30.70;;;10.35;;
68250;SDS011;55066;51.560;4.642;2023-01-29T09:59:53;33.58;;;12.95;;
68250;SDS011;55066;51.560;4.642;2023-01-29T10:05:29;33.90;;;14.57;;
68250;SDS011;55066;51.560;4.642;2023-01-29T10:13:46;37.60;;;14.40;;
68250;SDS011;55066;51.560;4.642;2023-01-29T10:24:51;34.80;;;13.52;;
68250;SDS011;55066;51.560;4.642;2023-01-29T10:27:20;34.65;;;14.38;;
68250;SDS011;55066;51.560;4.642;2023-01-29T10:29:46;37.63;;;14.90;;
68250;SDS011;55066;51.560;4.642;2023-01-29T10:32:16;30.70;;;12.47;;
68250;SDS011;55066;51.560;4.642;2023-01-29T10:34:44;33.95;;;12.88;;
68250;SDS011;55066;51.560;4.642;2023-01-29T10:37:15;37.97;;;13.85;;
68250;SDS011;55066;51.560;4.642;2023-01-29T10:39:43;36.30;;;13.82;;
68250;SDS011;55066;51.560;4.642;2023-01-29T10:47:38;33.13;;;12.88;;
68250;SDS011;55066;51.560;4.642;2023-01-29T10:53:21;33.33;;;13.77;;
68250;SDS011;55066;51.560;4.642;2023-01-29T10:58:50;36.43;;;13.83;;
68250;SDS011;55066;51.560;4.642;2023-01-29T11:01:17;29.50;;;11.60;;
68250;SDS011;55066;51.560;4.642;2023-01-29T11:03:43;40.47;;;14.90;;
68250;SDS011;55066;51.560;4.642;2023-01-29T11:09:56;36.38;;;13.90;;
68250;SDS011;55066;51.560;4.642;2023-01-29T11:12:14;36.73;;;13.73;;
68250;SDS011;55066;51.560;4.642;2023-01-29T11:17:20;34.75;;;13.35;;
68250;SDS011;55066;51.560;4.642;2023-01-29T11:19:48;31.20;;;12.65;;
68250;SDS011;55066;51.560;4.642;2023-01-29T11:22:26;40.45;;;14.85;;
68250;SDS011;55066;51.560;4.642;2023-01-29T11:27:45;33.50;;;13.00;;
68250;SDS011;55066;51.560;4.642;2023-01-29T11:30:33;42.13;;;13.85;;
68250;SDS011;55066;51.560;4.642;2023-01-29T11:33:17;37.92;;;14.50;;
68250;SDS011;55066;51.560;4.642;2023-01-29T11:35:48;42.08;;;14.85;;
68250;SDS011;55066;51.560;4.642;2023-01-29T11:40:42;39.25;;;15.25;;
68250;SDS011;55066;51.560;4.642;2023-01-29T11:43:10;37.30;;;15.43;;
68250;SDS011;55066;51.560;4.642;2023-01-29T11:45:41;34.03;;;14.93;;
68250;SDS011;55066;51.560;4.642;2023-01-29T11:48:11;39.57;;;16.43;;
68250;SDS011;55066;51.560;4.642;2023-01-29T11:50:42;39.92;;;15.50;;
68250;SDS011;55066;51.560;4.642;2023-01-29T11:53:27;36.53;;;14.35;;
68250;SDS011;55066;51.560;4.642;2023-01-29T11:55:55;40.60;;;15.90;;
68250;SDS011;55066;51.560;4.642;2023-01-29T11:58:28;40.95;;;15.52;;
68250;SDS011;55066;51.560;4.642;2023-01-29T12:00:56;40.55;;;15.85;;
68250;SDS011;55066;51.560;4.642;2023-01-29T12:03:31;41.92;;;16.92;;
68250;SDS011;55066;51.560;4.642;2023-01-29T12:06:23;39.40;;;15.63;;
68250;SDS011;55066;51.560;4.642;2023-01-29T12:08:59;34.75;;;15.00;;
68250;SDS011;55066;51.560;4.642;2023-01-29T12:11:28;36.90;;;15.85;;
68250;SDS011;55066;51.560;4.642;2023-01-29T12:13:56;36.13;;;13.98;;
68250;SDS011;55066;51.560;4.642;2023-01-29T12:16:32;34.42;;;15.05;;
68250;SDS011;55066;51.560;4.642;2023-01-29T12:22:14;37.72;;;15.65;;
68250;SDS011;55066;51.560;4.642;2023-01-29T12:24:48;34.40;;;15.48;;
68250;SDS011;55066;51.560;4.642;2023-01-29T12:27:16;34.88;;;14.75;;
68250;SDS011;55066;51.560;4.642;2023-01-29T12:29:53;35.85;;;14.38;;
68250;SDS011;55066;51.560;4.642;2023-01-29T12:32:28;38.63;;;16.40;;
68250;SDS011;55066;51.560;4.642;2023-01-29T12:35:22;35.97;;;15.40;;
68250;SDS011;55066;51.560;4.642;2023-01-29T12:37:55;34.33;;;15.93;;
68250;SDS011;55066;51.560;4.642;2023-01-29T12:40:38;35.33;;;14.27;;
68250;SDS011;55066;51.560;4.642;2023-01-29T12:43:46;30.50;;;12.98;;
68250;SDS011;55066;51.560;4.642;2023-01-29T12:46:21;36.10;;;14.03;;
68250;SDS011;55066;51.560;4.642;2023-01-29T12:48:52;36.65;;;14.20;;
68250;SDS011;55066;51.560;4.642;2023-01-29T12:51:22;32.63;;;11.75;;
68250;SDS011;55066;51.560;4.642;2023-01-29T12:56:34;35.75;;;14.20;;
68250;SDS011;55066;51.560;4.642;2023-01-29T12:59:05;34.43;;;13.67;;
68250;SDS011;55066;51.560;4.642;2023-01-29T13:01:58;34.72;;;14.05;;
68250;SDS011;55066;51.560;4.642;2023-01-29T13:04:37;34.05;;;13.73;;
68250;SDS011;55066;51.560;4.642;2023-01-29T13:09:41;35.90;;;14.88;;
68250;SDS011;55066;51.560;4.642;2023-01-29T13:12:16;36.73;;;14.53;;
68250;SDS011;55066;51.560;4.642;2023-01-29T13:17:18;38.58;;;13.43;;
68250;SDS011;55066;51.560;4.642;2023-01-29T13:19:49;37.23;;;14.27;;
68250;SDS011;55066;51.560;4.642;2023-01-29T13:22:27;30.45;;;13.77;;
68250;SDS011;55066;51.560;4.642;2023-01-29T13:24:59;30.48;;;13.35;;
68250;SDS011;55066;51.560;4.642;2023-01-29T13:27:26;33.47;;;13.75;;
68250;SDS011;55066;51.560;4.642;2023-01-29T13:29:54;36.85;;;14.48;;
68250;SDS011;55066;51.560;4.642;2023-01-29T13:32:22;32.60;;;14.87;;
68250;SDS011;55066;51.560;4.642;2023-01-29T13:34:51;37.08;;;14.90;;
68250;SDS011;55066;51.560;4.642;2023-01-29T13:37:32;36.58;;;14.85;;
68250;SDS011;55066;51.560;4.642;2023-01-29T13:39:59;37.22;;;15.07;;
68250;SDS011;55066;51.560;4.642;2023-01-29T13:42:41;37.45;;;14.98;;
68250;SDS011;55066;51.560;4.642;2023-01-29T13:45:22;39.73;;;15.40;;
68250;SDS011;55066;51.560;4.642;2023-01-29T13:47:50;33.33;;;15.20;;
68250;SDS011;55066;51.560;4.642;2023-01-29T13:53:01;37.67;;;16.02;;
68250;SDS011;55066;51.560;4.642;2023-01-29T13:55:36;37.63;;;15.50;;
68250;SDS011;55066;51.560;4.642;2023-01-29T14:07:55;35.70;;;15.37;;
68250;SDS011;55066;51.560;4.642;2023-01-29T14:10:24;37.88;;;14.77;;
68250;SDS011;55066;51.560;4.642;2023-01-29T14:12:52;31.38;;;14.55;;
68250;SDS011;55066;51.560;4.642;2023-01-29T14:15:38;33.57;;;13.87;;
68250;SDS011;55066;51.560;4.642;2023-01-29T14:20:38;32.25;;;12.75;;
68250;SDS011;55066;51.560;4.642;2023-01-29T14:23:07;29.53;;;12.40;;
68250;SDS011;55066;51.560;4.642;2023-01-29T14:26:20;30.83;;;12.25;;
68250;SDS011;55066;51.560;4.642;2023-01-29T14:29:30;30.30;;;12.85;;
68250;SDS011;55066;51.560;4.642;2023-01-29T14:34:24;29.85;;;12.90;;
68250;SDS011;55066;51.560;4.642;2023-01-29T14:42:54;33.53;;;14.30;;
68250;SDS011;55066;51.560;4.642;2023-01-29T14:45:35;36.40;;;12.93;;
68250;SDS011;55066;51.560;4.642;2023-01-29T14:53:10;32.10;;;13.10;;
68250;SDS011;55066;51.560;4.642;2023-01-29T14:58:40;35.78;;;13.82;;
68250;SDS011;55066;51.560;4.642;2023-01-29T15:01:25;34.55;;;13.23;;
68250;SDS011;55066;51.560;4.642;2023-01-29T15:06:46;37.25;;;15.63;;
68250;SDS011;55066;51.560;4.642;2023-01-29T15:11:51;35.55;;;13.32;;
68250;SDS011;55066;51.560;4.642;2023-01-29T15:14:37;31.88;;;13.68;;
68250;SDS011;55066;51.560;4.642;2023-01-29T15:19:56;31.30;;;11.98;;
68250;SDS011;55066;51.560;4.642;2023-01-29T15:22:22;33.50;;;12.37;;
68250;SDS011;55066;51.560;4.642;2023-01-29T15:27:42;37.25;;;12.63;;
68250;SDS011;55066;51.560;4.642;2023-01-29T15:30:13;32.60;;;13.00;;
68250;SDS011;55066;51.560;4.642;2023-01-29T15:32:41;35.55;;;13.57;;
68250;SDS011;55066;51.560;4.642;2023-01-29T15:35:08;34.40;;;14.27;;
68250;SDS011;55066;51.560;4.642;2023-01-29T15:37:35;37.00;;;13.27;;
68250;SDS011;55066;51.560;4.642;2023-01-29T15:40:02;32.75;;;12.00;;
68250;SDS011;55066;51.560;4.642;2023-01-29T15:42:40;32.40;;;12.63;;
68250;SDS011;55066;51.560;4.642;2023-01-29T15:48:00;30.00;;;12.60;;
68250;SDS011;55066;51.560;4.642;2023-01-29T15:50:29;34.28;;;12.95;;
68250;SDS011;55066;51.560;4.642;2023-01-29T15:52:57;34.38;;;14.00;;
68250;SDS011;55066;51.560;4.642;2023-01-29T15:55:28;32.88;;;13.77;;
68250;SDS011;55066;51.560;4.642;2023-01-29T15:57:54;36.70;;;14.07;;
68250;SDS011;55066;51.560;4.642;2023-01-29T16:00:22;34.87;;;13.27;;
68250;SDS011;55066;51.560;4.642;2023-01-29T16:02:51;36.05;;;13.30;;
68250;SDS011;55066;51.560;4.642;2023-01-29T16:05:21;32.63;;;13.80;;
68250;SDS011;55066;51.560;4.642;2023-01-29T16:07:51;34.90;;;13.40;;
68250;SDS011;55066;51.560;4.642;2023-01-29T16:10:19;32.00;;;13.38;;
68250;SDS011;55066;51.560;4.642;2023-01-29T16:12:47;36.90;;;14.37;;
68250;SDS011;55066;51.560;4.642;2023-01-29T16:15:32;36.67;;;13.90;;
68250;SDS011;55066;51.560;4.642;2023-01-29T16:18:00;38.03;;;14.25;;
68250;SDS011;55066;51.560;4.642;2023-01-29T16:20:33;38.33;;;13.82;;
68250;SDS011;55066;51.560;4.642;2023-01-29T16:23:02;38.40;;;14.70;;
68250;SDS011;55066;51.560;4.642;2023-01-29T16:25:28;38.30;;;14.67;;
68250;SDS011;55066;51.560;4.642;2023-01-29T16:27:57;35.03;;;13.68;;
68250;SDS011;55066;51.560;4.642;2023-01-29T16:30:26;35.30;;;14.45;;
68250;SDS011;55066;51.560;4.642;2023-01-29T16:32:52;40.33;;;14.23;;
68250;SDS011;55066;51.560;4.642;2023-01-29T16:35:24;33.35;;;13.18;;
68250;SDS011;55066;51.560;4.642;2023-01-29T16:37:50;35.60;;;14.30;;
68250;SDS011;55066;51.560;4.642;2023-01-29T16:40:25;36.85;;;13.82;;
68250;SDS011;55066;51.560;4.642;2023-01-29T16:43:28;31.98;;;13.15;;
68250;SDS011;55066;51.560;4.642;2023-01-29T16:46:00;34.42;;;13.65;;
68250;SDS011;55066;51.560;4.642;2023-01-29T16:48:30;34.75;;;13.98;;
68250;SDS011;55066;51.560;4.642;2023-01-29T16:51:04;32.80;;;13.60;;
68250;SDS011;55066;51.560;4.642;2023-01-29T16:53:36;34.22;;;14.27;;
68250;SDS011;55066;51.560;4.642;2023-01-29T16:56:02;36.03;;;13.93;;
68250;SDS011;55066;51.560;4.642;2023-01-29T16:58:31;36.08;;;14.35;;
68250;SDS011;55066;51.560;4.642;2023-01-29T17:01:01;33.63;;;13.48;;
68250;SDS011;55066;51.560;4.642;2023-01-29T17:03:29;31.27;;;11.93;;
68250;SDS011;55066;51.560;4.642;2023-01-29T17:06:39;34.17;;;13.43;;
68250;SDS011;55066;51.560;4.642;2023-01-29T17:08:47;36.28;;;14.43;;
68250;SDS011;55066;51.560;4.642;2023-01-29T17:11:25;35.50;;;13.73;;
68250;SDS011;55066;51.560;4.642;2023-01-29T17:13:59;35.35;;;13.93;;
68250;SDS011;55066;51.560;4.642;2023-01-29T17:16:29;35.10;;;14.23;;
68250;SDS011;55066;51.560;4.642;2023-01-29T17:18:57;41.13;;;14.18;;
68250;SDS011;55066;51.560;4.642;2023-01-29T17:21:23;34.63;;;13.50;;
68250;SDS011;55066;51.560;4.642;2023-01-29T17:23:49;37.63;;;14.25;;
68250;SDS011;55066;51.560;4.642;2023-01-29T17:26:15;41.33;;;15.17;;
68250;SDS011;55066;51.560;4.642;2023-01-29T17:28:41;40.42;;;14.23;;